sensor_id;sensor_type;location;lat;lon;timestamp;P1;durP1;ratioP1;P2;durP2;ratioP2
8594;SDS011;4335;48.860;9.198;2023-04-28T00:02:02;7.83;;;5.00;;
8594;SDS011;4335;48.860;9.198;2023-04-28T00:04:35;9.50;;;5.10;;
8594;SDS011;4335;48.860;9.198;2023-04-28T00:07:05;6.37;;;4.60;;
8594;SDS011;4335;48.860;9.198;2023-04-28T00:09:32;6.63;;;4.57;;
8594;SDS011;4335;48.860;9.198;2023-04-28T00:11:59;6.30;;;4.50;;
8594;SDS011;4335;48.860;9.198;2023-04-28T00:14:26;5.20;;;4.70;;
8594;SDS011;4335;48.860;9.198;2023-04-28T00:16:59;8.53;;;6.07;;
8594;SDS011;4335;48.860;9.198;2023-04-28T00:19:27;7.20;;;4.77;;
8594;SDS011;4335;48.860;9.198;2023-04-28T00:21:54;5.57;;;4.47;;
8594;SDS011;4335;48.860;9.198;2023-04-28T00:24:24;6.53;;;5.40;;
8594;SDS011;4335;48.860;9.198;2023-04-28T00:26:54;5.97;;;4.70;;
8594;SDS011;4335;48.860;9.198;2023-04-28T00:29:25;5.20;;;4.40;;
8594;SDS011;4335;48.860;9.198;2023-04-28T00:31:59;6.07;;;5.20;;
8594;SDS011;4335;48.860;9.198;2023-04-28T00:34:33;5.90;;;4.40;;
8594;SDS011;4335;48.860;9.198;2023-04-28T00:37:01;6.60;;;4.97;;
8594;SDS011;4335;48.860;9.198;2023-04-28T00:39:29;5.70;;;5.10;;
8594;SDS011;4335;48.860;9.198;2023-04-28T00:41:56;8.00;;;4.53;;
8594;SDS011;4335;48.860;9.198;2023-04-28T00:44:22;6.43;;;5.10;;
8594;SDS011;4335;48.860;9.198;2023-04-28T00:46:49;5.53;;;4.77;;
8594;SDS011;4335;48.860;9.198;2023-04-28T00:49:21;9.43;;;5.20;;
8594;SDS011;4335;48.860;9.198;2023-04-28T00:51:51;6.70;;;5.13;;
8594;SDS011;4335;48.860;9.198;2023-04-28T00:54:21;7.73;;;5.00;;
8594;SDS011;4335;48.860;9.198;2023-04-28T00:56:51;6.93;;;5.00;;
8594;SDS011;4335;48.860;9.198;2023-04-28T00:59:23;6.23;;;5.10;;
8594;SDS011;4335;48.860;9.198;2023-04-28T01:01:49;11.77;;;5.07;;
8594;SDS011;4335;48.860;9.198;2023-04-28T01:04:16;7.17;;;4.83;;
8594;SDS011;4335;48.860;9.198;2023-04-28T01:06:50;8.07;;;4.90;;
8594;SDS011;4335;48.860;9.198;2023-04-28T01:09:21;6.83;;;4.57;;
8594;SDS011;4335;48.860;9.198;2023-04-28T01:11:51;9.03;;;6.57;;
8594;SDS011;4335;48.860;9.198;2023-04-28T01:14:20;9.87;;;5.13;;
8594;SDS011;4335;48.860;9.198;2023-04-28T01:16:50;5.73;;;4.53;;
8594;SDS011;4335;48.860;9.198;2023-04-28T01:19:21;6.07;;;4.77;;
8594;SDS011;4335;48.860;9.198;2023-04-28T01:21:48;6.77;;;4.50;;
8594;SDS011;4335;48.860;9.198;2023-04-28T01:24:16;8.40;;;5.30;;
8594;SDS011;4335;48.860;9.198;2023-04-28T01:26:43;6.77;;;4.80;;
8594;SDS011;4335;48.860;9.198;2023-04-28T01:29:10;6.70;;;4.40;;
8594;SDS011;4335;48.860;9.198;2023-04-28T01:31:40;4.07;;;3.63;;
8594;SDS011;4335;48.860;9.198;2023-04-28T01:34:06;7.13;;;5.40;;
8594;SDS011;4335;48.860;9.198;2023-04-28T01:36:36;6.93;;;4.47;;
8594;SDS011;4335;48.860;9.198;2023-04-28T01:39:03;7.77;;;5.70;;
8594;SDS011;4335;48.860;9.198;2023-04-28T01:41:33;4.53;;;4.00;;
8594;SDS011;4335;48.860;9.198;2023-04-28T01:44:00;7.93;;;4.37;;
8594;SDS011;4335;48.860;9.198;2023-04-28T01:46:26;7.80;;;4.00;;
8594;SDS011;4335;48.860;9.198;2023-04-28T01:48:53;6.27;;;4.47;;
8594;SDS011;4335;48.860;9.198;2023-04-28T01:51:24;6.33;;;4.73;;
8594;SDS011;4335;48.860;9.198;2023-04-28T01:53:52;6.67;;;5.33;;
8594;SDS011;4335;48.860;9.198;2023-04-28T01:56:27;4.37;;;3.97;;
8594;SDS011;4335;48.860;9.198;2023-04-28T01:58:58;5.97;;;4.20;;
8594;SDS011;4335;48.860;9.198;2023-04-28T02:01:28;5.33;;;4.50;;
8594;SDS011;4335;48.860;9.198;2023-04-28T02:04:00;4.23;;;3.83;;
8594;SDS011;4335;48.860;9.198;2023-04-28T02:06:27;5.33;;;3.83;;
8594;SDS011;4335;48.860;9.198;2023-04-28T02:08:54;4.63;;;3.90;;
8594;SDS011;4335;48.860;9.198;2023-04-28T02:11:20;5.23;;;3.80;;
8594;SDS011;4335;48.860;9.198;2023-04-28T02:13:50;4.97;;;3.47;;
8594;SDS011;4335;48.860;9.198;2023-04-28T02:16:17;5.73;;;4.13;;
8594;SDS011;4335;48.860;9.198;2023-04-28T02:18:44;7.47;;;5.43;;
8594;SDS011;4335;48.860;9.198;2023-04-28T02:21:14;6.13;;;4.60;;
8594;SDS011;4335;48.860;9.198;2023-04-28T02:23:41;8.13;;;4.23;;
8594;SDS011;4335;48.860;9.198;2023-04-28T02:26:16;6.47;;;4.10;;
8594;SDS011;4335;48.860;9.198;2023-04-28T02:28:43;5.83;;;4.07;;
8594;SDS011;4335;48.860;9.198;2023-04-28T02:31:10;5.83;;;4.00;;
8594;SDS011;4335;48.860;9.198;2023-04-28T02:33:38;6.63;;;4.50;;
8594;SDS011;4335;48.860;9.198;2023-04-28T02:36:09;9.77;;;3.57;;
8594;SDS011;4335;48.860;9.198;2023-04-28T02:38:41;3.73;;;3.33;;
8594;SDS011;4335;48.860;9.198;2023-04-28T02:41:07;4.60;;;3.43;;
8594;SDS011;4335;48.860;9.198;2023-04-28T02:43:34;5.97;;;3.50;;
8594;SDS011;4335;48.860;9.198;2023-04-28T02:46:01;4.83;;;3.67;;
8594;SDS011;4335;48.860;9.198;2023-04-28T02:48:32;4.33;;;3.63;;
8594;SDS011;4335;48.860;9.198;2023-04-28T02:51:00;4.30;;;3.73;;
8594;SDS011;4335;48.860;9.198;2023-04-28T02:53:27;3.90;;;3.47;;
8594;SDS011;4335;48.860;9.198;2023-04-28T02:55:54;5.37;;;3.63;;
8594;SDS011;4335;48.860;9.198;2023-04-28T02:58:27;4.00;;;3.60;;
8594;SDS011;4335;48.860;9.198;2023-04-28T03:00:53;11.63;;;4.23;;
8594;SDS011;4335;48.860;9.198;2023-04-28T03:03:20;4.83;;;3.80;;
8594;SDS011;4335;48.860;9.198;2023-04-28T03:05:54;5.10;;;3.30;;
8594;SDS011;4335;48.860;9.198;2023-04-28T03:08:25;4.70;;;4.00;;
8594;SDS011;4335;48.860;9.198;2023-04-28T03:10:51;4.23;;;3.57;;
8594;SDS011;4335;48.860;9.198;2023-04-28T03:13:21;4.60;;;3.47;;
8594;SDS011;4335;48.860;9.198;2023-04-28T03:15:51;4.30;;;3.90;;
8594;SDS011;4335;48.860;9.198;2023-04-28T03:18:24;4.80;;;3.70;;
8594;SDS011;4335;48.860;9.198;2023-04-28T03:20:55;6.20;;;3.43;;
8594;SDS011;4335;48.860;9.198;2023-04-28T03:23:22;5.57;;;4.00;;
8594;SDS011;4335;48.860;9.198;2023-04-28T03:25:52;4.97;;;3.30;;
8594;SDS011;4335;48.860;9.198;2023-04-28T03:28:19;6.67;;;4.20;;
8594;SDS011;4335;48.860;9.198;2023-04-28T03:30:49;4.40;;;3.73;;
8594;SDS011;4335;48.860;9.198;2023-04-28T03:33:16;3.63;;;3.33;;
8594;SDS011;4335;48.860;9.198;2023-04-28T03:35:42;5.73;;;4.00;;
8594;SDS011;4335;48.860;9.198;2023-04-28T03:38:09;5.13;;;3.70;;
8594;SDS011;4335;48.860;9.198;2023-04-28T03:40:38;4.70;;;3.90;;
8594;SDS011;4335;48.860;9.198;2023-04-28T03:43:11;5.07;;;3.57;;
8594;SDS011;4335;48.860;9.198;2023-04-28T03:45:38;4.83;;;4.10;;
8594;SDS011;4335;48.860;9.198;2023-04-28T03:48:06;5.60;;;4.27;;
8594;SDS011;4335;48.860;9.198;2023-04-28T03:50:32;4.80;;;4.30;;
8594;SDS011;4335;48.860;9.198;2023-04-28T03:53:02;6.53;;;4.83;;
8594;SDS011;4335;48.860;9.198;2023-04-28T03:55:29;7.43;;;3.53;;
8594;SDS011;4335;48.860;9.198;2023-04-28T03:57:56;5.30;;;4.13;;
8594;SDS011;4335;48.860;9.198;2023-04-28T04:00:23;4.60;;;4.20;;
8594;SDS011;4335;48.860;9.198;2023-04-28T04:02:50;4.43;;;4.03;;
8594;SDS011;4335;48.860;9.198;2023-04-28T04:05:23;5.37;;;3.97;;
8594;SDS011;4335;48.860;9.198;2023-04-28T04:07:49;4.83;;;4.20;;
8594;SDS011;4335;48.860;9.198;2023-04-28T04:10:19;7.47;;;4.27;;
8594;SDS011;4335;48.860;9.198;2023-04-28T04:12:46;4.37;;;3.97;;
8594;SDS011;4335;48.860;9.198;2023-04-28T04:15:15;5.37;;;3.90;;
8594;SDS011;4335;48.860;9.198;2023-04-28T04:17:49;6.63;;;4.27;;
8594;SDS011;4335;48.860;9.198;2023-04-28T04:20:16;4.90;;;4.40;;
8594;SDS011;4335;48.860;9.198;2023-04-28T04:22:42;5.10;;;4.27;;
8594;SDS011;4335;48.860;9.198;2023-04-28T04:25:09;5.80;;;4.73;;
8594;SDS011;4335;48.860;9.198;2023-04-28T04:27:36;5.63;;;4.47;;
8594;SDS011;4335;48.860;9.198;2023-04-28T04:30:05;4.83;;;4.30;;
8594;SDS011;4335;48.860;9.198;2023-04-28T04:32:35;6.63;;;4.40;;
8594;SDS011;4335;48.860;9.198;2023-04-28T04:35:03;4.47;;;4.07;;
8594;SDS011;4335;48.860;9.198;2023-04-28T04:37:33;4.77;;;4.27;;
8594;SDS011;4335;48.860;9.198;2023-04-28T04:39:59;5.73;;;4.90;;
8594;SDS011;4335;48.860;9.198;2023-04-28T04:42:30;5.50;;;4.97;;
8594;SDS011;4335;48.860;9.198;2023-04-28T04:44:57;5.40;;;4.77;;
8594;SDS011;4335;48.860;9.198;2023-04-28T04:47:29;6.30;;;5.33;;
8594;SDS011;4335;48.860;9.198;2023-04-28T04:50:03;6.80;;;4.53;;
8594;SDS011;4335;48.860;9.198;2023-04-28T04:52:33;6.50;;;4.13;;
8594;SDS011;4335;48.860;9.198;2023-04-28T04:55:03;6.20;;;5.10;;
8594;SDS011;4335;48.860;9.198;2023-04-28T04:57:30;8.80;;;6.23;;
8594;SDS011;4335;48.860;9.198;2023-04-28T04:59:57;5.47;;;4.80;;
8594;SDS011;4335;48.860;9.198;2023-04-28T05:02:27;7.63;;;5.50;;
8594;SDS011;4335;48.860;9.198;2023-04-28T05:05:07;12.50;;;7.40;;
8594;SDS011;4335;48.860;9.198;2023-04-28T05:07:34;6.00;;;5.37;;
8594;SDS011;4335;48.860;9.198;2023-04-28T05:10:01;9.33;;;7.37;;
8594;SDS011;4335;48.860;9.198;2023-04-28T05:12:27;13.87;;;10.57;;
8594;SDS011;4335;48.860;9.198;2023-04-28T05:14:54;19.03;;;13.20;;
8594;SDS011;4335;48.860;9.198;2023-04-28T05:17:21;13.30;;;9.50;;
8594;SDS011;4335;48.860;9.198;2023-04-28T05:19:57;9.50;;;7.63;;
8594;SDS011;4335;48.860;9.198;2023-04-28T05:22:27;11.30;;;8.07;;
8594;SDS011;4335;48.860;9.198;2023-04-28T05:24:58;7.33;;;5.67;;
8594;SDS011;4335;48.860;9.198;2023-04-28T05:27:31;7.17;;;5.43;;
8594;SDS011;4335;48.860;9.198;2023-04-28T05:30:14;6.13;;;5.17;;
8594;SDS011;4335;48.860;9.198;2023-04-28T05:32:41;8.97;;;7.10;;
8594;SDS011;4335;48.860;9.198;2023-04-28T05:35:14;8.00;;;4.77;;
8594;SDS011;4335;48.860;9.198;2023-04-28T05:37:48;6.07;;;5.23;;
8594;SDS011;4335;48.860;9.198;2023-04-28T05:40:16;5.47;;;4.97;;
8594;SDS011;4335;48.860;9.198;2023-04-28T05:42:53;7.27;;;5.30;;
8594;SDS011;4335;48.860;9.198;2023-04-28T05:45:19;6.43;;;5.43;;
8594;SDS011;4335;48.860;9.198;2023-04-28T05:47:52;6.97;;;5.20;;
8594;SDS011;4335;48.860;9.198;2023-04-28T05:50:19;6.50;;;5.10;;
8594;SDS011;4335;48.860;9.198;2023-04-28T05:52:49;7.43;;;5.43;;
8594;SDS011;4335;48.860;9.198;2023-04-28T05:55:16;9.97;;;5.30;;
8594;SDS011;4335;48.860;9.198;2023-04-28T05:57:43;6.63;;;5.30;;
8594;SDS011;4335;48.860;9.198;2023-04-28T06:00:10;8.33;;;5.53;;
8594;SDS011;4335;48.860;9.198;2023-04-28T06:02:38;6.70;;;5.67;;
8594;SDS011;4335;48.860;9.198;2023-04-28T06:05:04;8.70;;;6.13;;
8594;SDS011;4335;48.860;9.198;2023-04-28T06:07:38;7.27;;;5.33;;
8594;SDS011;4335;48.860;9.198;2023-04-28T06:10:06;8.17;;;5.70;;
8594;SDS011;4335;48.860;9.198;2023-04-28T06:12:39;6.30;;;5.70;;
8594;SDS011;4335;48.860;9.198;2023-04-28T06:15:08;6.97;;;5.17;;
8594;SDS011;4335;48.860;9.198;2023-04-28T06:17:39;7.63;;;5.30;;
8594;SDS011;4335;48.860;9.198;2023-04-28T06:20:07;10.00;;;5.77;;
8594;SDS011;4335;48.860;9.198;2023-04-28T06:22:35;6.03;;;5.13;;
8594;SDS011;4335;48.860;9.198;2023-04-28T06:25:02;7.30;;;5.43;;
8594;SDS011;4335;48.860;9.198;2023-04-28T06:27:38;8.23;;;5.60;;
8594;SDS011;4335;48.860;9.198;2023-04-28T06:30:05;8.10;;;5.60;;
8594;SDS011;4335;48.860;9.198;2023-04-28T06:32:32;6.50;;;5.83;;
8594;SDS011;4335;48.860;9.198;2023-04-28T06:34:59;7.10;;;5.60;;
8594;SDS011;4335;48.860;9.198;2023-04-28T06:37:26;7.60;;;6.37;;
8594;SDS011;4335;48.860;9.198;2023-04-28T06:39:52;10.23;;;7.53;;
8594;SDS011;4335;48.860;9.198;2023-04-28T06:42:19;9.00;;;6.23;;
8594;SDS011;4335;48.860;9.198;2023-04-28T06:44:53;7.43;;;4.83;;
8594;SDS011;4335;48.860;9.198;2023-04-28T06:47:22;9.17;;;5.63;;
8594;SDS011;4335;48.860;9.198;2023-04-28T06:49:49;6.80;;;5.90;;
8594;SDS011;4335;48.860;9.198;2023-04-28T06:52:16;6.87;;;5.03;;
8594;SDS011;4335;48.860;9.198;2023-04-28T06:54:42;6.87;;;4.90;;
8594;SDS011;4335;48.860;9.198;2023-04-28T06:57:15;7.43;;;5.53;;
8594;SDS011;4335;48.860;9.198;2023-04-28T06:59:41;5.63;;;5.03;;
8594;SDS011;4335;48.860;9.198;2023-04-28T07:02:19;8.90;;;5.70;;
8594;SDS011;4335;48.860;9.198;2023-04-28T07:04:46;7.93;;;6.37;;
8594;SDS011;4335;48.860;9.198;2023-04-28T07:07:16;8.53;;;5.77;;
8594;SDS011;4335;48.860;9.198;2023-04-28T07:09:43;8.77;;;5.60;;
8594;SDS011;4335;48.860;9.198;2023-04-28T07:12:12;7.33;;;5.90;;
8594;SDS011;4335;48.860;9.198;2023-04-28T07:14:39;7.80;;;5.80;;
8594;SDS011;4335;48.860;9.198;2023-04-28T07:17:05;6.77;;;5.00;;
8594;SDS011;4335;48.860;9.198;2023-04-28T07:19:33;6.03;;;5.30;;
8594;SDS011;4335;48.860;9.198;2023-04-28T07:22:03;8.50;;;5.20;;
8594;SDS011;4335;48.860;9.198;2023-04-28T07:24:32;6.23;;;5.10;;
8594;SDS011;4335;48.860;9.198;2023-04-28T07:27:02;6.10;;;5.23;;
8594;SDS011;4335;48.860;9.198;2023-04-28T07:29:32;6.57;;;5.30;;
8594;SDS011;4335;48.860;9.198;2023-04-28T07:32:02;6.27;;;5.43;;
8594;SDS011;4335;48.860;9.198;2023-04-28T07:34:33;5.70;;;5.10;;
8594;SDS011;4335;48.860;9.198;2023-04-28T07:37:01;7.43;;;5.53;;
8594;SDS011;4335;48.860;9.198;2023-04-28T07:39:27;6.60;;;5.00;;
8594;SDS011;4335;48.860;9.198;2023-04-28T07:42:05;5.80;;;5.20;;
8594;SDS011;4335;48.860;9.198;2023-04-28T07:44:38;6.50;;;5.13;;
8594;SDS011;4335;48.860;9.198;2023-04-28T07:47:04;6.37;;;5.30;;
8594;SDS011;4335;48.860;9.198;2023-04-28T07:49:31;6.13;;;5.30;;
8594;SDS011;4335;48.860;9.198;2023-04-28T07:51:59;7.60;;;5.80;;
8594;SDS011;4335;48.860;9.198;2023-04-28T07:54:25;5.83;;;5.23;;
8594;SDS011;4335;48.860;9.198;2023-04-28T07:56:54;8.37;;;6.87;;
8594;SDS011;4335;48.860;9.198;2023-04-28T07:59:27;7.30;;;5.60;;
8594;SDS011;4335;48.860;9.198;2023-04-28T08:02:03;6.63;;;5.40;;
8594;SDS011;4335;48.860;9.198;2023-04-28T08:04:30;7.67;;;5.53;;
8594;SDS011;4335;48.860;9.198;2023-04-28T08:07:05;6.60;;;5.53;;
8594;SDS011;4335;48.860;9.198;2023-04-28T08:09:31;5.77;;;5.10;;
8594;SDS011;4335;48.860;9.198;2023-04-28T08:12:02;6.27;;;4.80;;
8594;SDS011;4335;48.860;9.198;2023-04-28T08:14:28;6.93;;;5.13;;
8594;SDS011;4335;48.860;9.198;2023-04-28T08:17:07;6.93;;;5.90;;
8594;SDS011;4335;48.860;9.198;2023-04-28T08:19:34;8.73;;;5.60;;
8594;SDS011;4335;48.860;9.198;2023-04-28T08:22:05;6.43;;;5.73;;
8594;SDS011;4335;48.860;9.198;2023-04-28T08:24:38;6.00;;;5.50;;
8594;SDS011;4335;48.860;9.198;2023-04-28T08:27:04;6.30;;;5.63;;
8594;SDS011;4335;48.860;9.198;2023-04-28T08:29:31;5.40;;;4.90;;
8594;SDS011;4335;48.860;9.198;2023-04-28T08:31:58;6.60;;;5.63;;
8594;SDS011;4335;48.860;9.198;2023-04-28T08:34:26;6.07;;;5.47;;
8594;SDS011;4335;48.860;9.198;2023-04-28T08:36:59;6.47;;;5.87;;
8594;SDS011;4335;48.860;9.198;2023-04-28T08:39:26;5.77;;;5.17;;
8594;SDS011;4335;48.860;9.198;2023-04-28T08:41:53;6.30;;;5.50;;
8594;SDS011;4335;48.860;9.198;2023-04-28T08:44:21;7.93;;;6.20;;
8594;SDS011;4335;48.860;9.198;2023-04-28T08:46:52;8.17;;;6.03;;
8594;SDS011;4335;48.860;9.198;2023-04-28T08:49:30;7.87;;;7.07;;
8594;SDS011;4335;48.860;9.198;2023-04-28T08:52:01;6.30;;;5.30;;
8594;SDS011;4335;48.860;9.198;2023-04-28T08:54:32;6.30;;;5.57;;
8594;SDS011;4335;48.860;9.198;2023-04-28T08:57:02;6.90;;;6.20;;
8594;SDS011;4335;48.860;9.198;2023-04-28T08:59:30;7.17;;;5.83;;
8594;SDS011;4335;48.860;9.198;2023-04-28T09:02:00;8.13;;;5.80;;
8594;SDS011;4335;48.860;9.198;2023-04-28T09:04:32;6.60;;;5.83;;
8594;SDS011;4335;48.860;9.198;2023-04-28T09:07:02;6.50;;;5.20;;
8594;SDS011;4335;48.860;9.198;2023-04-28T09:09:32;6.63;;;5.37;;
8594;SDS011;4335;48.860;9.198;2023-04-28T09:11:59;6.47;;;5.30;;
8594;SDS011;4335;48.860;9.198;2023-04-28T09:14:30;6.13;;;5.27;;
8594;SDS011;4335;48.860;9.198;2023-04-28T09:16:58;6.20;;;5.23;;
8594;SDS011;4335;48.860;9.198;2023-04-28T09:19:40;5.80;;;5.20;;
8594;SDS011;4335;48.860;9.198;2023-04-28T09:22:10;5.47;;;4.37;;
8594;SDS011;4335;48.860;9.198;2023-04-28T09:24:40;6.90;;;4.87;;
8594;SDS011;4335;48.860;9.198;2023-04-28T09:27:08;5.23;;;4.83;;
8594;SDS011;4335;48.860;9.198;2023-04-28T09:29:50;4.83;;;4.33;;
8594;SDS011;4335;48.860;9.198;2023-04-28T09:32:18;8.43;;;5.43;;
8594;SDS011;4335;48.860;9.198;2023-04-28T09:34:47;5.93;;;5.30;;
8594;SDS011;4335;48.860;9.198;2023-04-28T09:37:15;5.10;;;4.60;;
8594;SDS011;4335;48.860;9.198;2023-04-28T09:39:52;7.03;;;6.00;;
8594;SDS011;4335;48.860;9.198;2023-04-28T09:42:35;6.37;;;5.23;;
8594;SDS011;4335;48.860;9.198;2023-04-28T09:45:02;6.03;;;4.93;;
8594;SDS011;4335;48.860;9.198;2023-04-28T09:47:34;5.87;;;5.27;;
8594;SDS011;4335;48.860;9.198;2023-04-28T09:50:02;7.50;;;6.77;;
8594;SDS011;4335;48.860;9.198;2023-04-28T09:52:38;6.37;;;5.10;;
8594;SDS011;4335;48.860;9.198;2023-04-28T09:55:08;6.90;;;5.67;;
8594;SDS011;4335;48.860;9.198;2023-04-28T09:57:39;9.67;;;7.47;;
8594;SDS011;4335;48.860;9.198;2023-04-28T10:00:07;11.03;;;7.73;;
8594;SDS011;4335;48.860;9.198;2023-04-28T10:02:36;6.30;;;5.70;;
8594;SDS011;4335;48.860;9.198;2023-04-28T10:05:03;5.77;;;5.27;;
8594;SDS011;4335;48.860;9.198;2023-04-28T10:07:32;5.53;;;5.03;;
8594;SDS011;4335;48.860;9.198;2023-04-28T10:10:00;5.60;;;5.10;;
8594;SDS011;4335;48.860;9.198;2023-04-28T10:12:34;6.50;;;4.60;;
8594;SDS011;4335;48.860;9.198;2023-04-28T10:15:06;5.13;;;4.50;;
8594;SDS011;4335;48.860;9.198;2023-04-28T10:17:34;6.83;;;5.50;;
8594;SDS011;4335;48.860;9.198;2023-04-28T10:20:01;5.27;;;4.30;;
8594;SDS011;4335;48.860;9.198;2023-04-28T10:22:33;5.73;;;4.83;;
8594;SDS011;4335;48.860;9.198;2023-04-28T10:25:23;5.33;;;4.13;;
8594;SDS011;4335;48.860;9.198;2023-04-28T10:27:52;7.20;;;5.00;;
8594;SDS011;4335;48.860;9.198;2023-04-28T10:30:25;5.93;;;5.33;;
8594;SDS011;4335;48.860;9.198;2023-04-28T10:35:50;5.10;;;4.40;;
8594;SDS011;4335;48.860;9.198;2023-04-28T10:38:16;4.97;;;4.43;;
8594;SDS011;4335;48.860;9.198;2023-04-28T10:40:48;4.87;;;4.33;;
8594;SDS011;4335;48.860;9.198;2023-04-28T10:45:59;6.97;;;5.10;;
8594;SDS011;4335;48.860;9.198;2023-04-28T10:51:36;5.83;;;4.77;;
8594;SDS011;4335;48.860;9.198;2023-04-28T10:54:15;8.53;;;6.83;;
8594;SDS011;4335;48.860;9.198;2023-04-28T10:59:47;2.47;;;1.80;;
8594;SDS011;4335;48.860;9.198;2023-04-28T11:05:16;2.33;;;1.63;;
8594;SDS011;4335;48.860;9.198;2023-04-28T11:13:55;1.70;;;1.53;;
8594;SDS011;4335;48.860;9.198;2023-04-28T11:16:46;4.43;;;3.27;;
8594;SDS011;4335;48.860;9.198;2023-04-28T11:19:14;1.90;;;1.70;;
8594;SDS011;4335;48.860;9.198;2023-04-28T11:21:48;4.23;;;2.57;;
8594;SDS011;4335;48.860;9.198;2023-04-28T11:24:16;1.70;;;1.23;;
8594;SDS011;4335;48.860;9.198;2023-04-28T11:26:46;1.23;;;1.13;;
8594;SDS011;4335;48.860;9.198;2023-04-28T11:29:13;2.47;;;1.20;;
8594;SDS011;4335;48.860;9.198;2023-04-28T11:31:39;2.00;;;1.60;;
8594;SDS011;4335;48.860;9.198;2023-04-28T11:34:17;2.47;;;1.87;;
8594;SDS011;4335;48.860;9.198;2023-04-28T11:36:45;1.40;;;1.30;;
8594;SDS011;4335;48.860;9.198;2023-04-28T11:39:12;1.73;;;1.43;;
8594;SDS011;4335;48.860;9.198;2023-04-28T11:41:39;1.10;;;1.00;;
8594;SDS011;4335;48.860;9.198;2023-04-28T11:44:11;1.10;;;1.00;;
8594;SDS011;4335;48.860;9.198;2023-04-28T11:46:44;1.70;;;1.60;;
8594;SDS011;4335;48.860;9.198;2023-04-28T11:49:15;1.43;;;1.23;;
8594;SDS011;4335;48.860;9.198;2023-04-28T11:51:42;1.57;;;1.30;;
8594;SDS011;4335;48.860;9.198;2023-04-28T11:54:15;1.70;;;1.60;;
8594;SDS011;4335;48.860;9.198;2023-04-28T11:56:46;4.03;;;2.30;;
8594;SDS011;4335;48.860;9.198;2023-04-28T11:59:15;2.33;;;1.30;;
8594;SDS011;4335;48.860;9.198;2023-04-28T12:01:46;1.70;;;1.33;;
8594;SDS011;4335;48.860;9.198;2023-04-28T12:04:13;1.90;;;1.80;;
8594;SDS011;4335;48.860;9.198;2023-04-28T12:06:59;1.87;;;1.37;;
8594;SDS011;4335;48.860;9.198;2023-04-28T12:09:27;1.50;;;1.40;;
8594;SDS011;4335;48.860;9.198;2023-04-28T12:11:54;1.90;;;1.67;;
8594;SDS011;4335;48.860;9.198;2023-04-28T12:14:22;2.80;;;2.10;;
8594;SDS011;4335;48.860;9.198;2023-04-28T12:16:52;4.63;;;2.30;;
8594;SDS011;4335;48.860;9.198;2023-04-28T12:19:22;4.30;;;1.80;;
8594;SDS011;4335;48.860;9.198;2023-04-28T12:21:59;3.37;;;1.87;;
8594;SDS011;4335;48.860;9.198;2023-04-28T12:24:27;2.73;;;1.83;;
8594;SDS011;4335;48.860;9.198;2023-04-28T12:26:53;2.97;;;1.70;;
8594;SDS011;4335;48.860;9.198;2023-04-28T12:29:38;1.93;;;1.60;;
8594;SDS011;4335;48.860;9.198;2023-04-28T12:32:06;2.50;;;2.27;;
8594;SDS011;4335;48.860;9.198;2023-04-28T12:34:38;3.10;;;1.90;;
8594;SDS011;4335;48.860;9.198;2023-04-28T12:37:09;3.17;;;2.70;;
8594;SDS011;4335;48.860;9.198;2023-04-28T12:39:38;2.13;;;1.70;;
8594;SDS011;4335;48.860;9.198;2023-04-28T12:42:12;1.27;;;1.17;;
8594;SDS011;4335;48.860;9.198;2023-04-28T12:44:39;1.37;;;1.27;;
8594;SDS011;4335;48.860;9.198;2023-04-28T12:47:09;0.93;;;0.90;;
8594;SDS011;4335;48.860;9.198;2023-04-28T12:49:35;1.47;;;1.17;;
8594;SDS011;4335;48.860;9.198;2023-04-28T12:52:04;1.87;;;1.20;;
8594;SDS011;4335;48.860;9.198;2023-04-28T12:54:31;0.90;;;0.90;;
8594;SDS011;4335;48.860;9.198;2023-04-28T12:57:05;0.87;;;0.77;;
8594;SDS011;4335;48.860;9.198;2023-04-28T12:59:35;1.53;;;1.00;;
8594;SDS011;4335;48.860;9.198;2023-04-28T13:02:04;1.90;;;0.90;;
8594;SDS011;4335;48.860;9.198;2023-04-28T13:04:31;2.43;;;1.20;;
8594;SDS011;4335;48.860;9.198;2023-04-28T13:06:58;1.37;;;1.20;;
8594;SDS011;4335;48.860;9.198;2023-04-28T13:09:28;2.77;;;1.20;;
8594;SDS011;4335;48.860;9.198;2023-04-28T13:11:57;1.13;;;1.00;;
8594;SDS011;4335;48.860;9.198;2023-04-28T13:14:24;2.03;;;0.93;;
8594;SDS011;4335;48.860;9.198;2023-04-28T13:16:52;2.47;;;1.23;;
8594;SDS011;4335;48.860;9.198;2023-04-28T13:19:19;2.77;;;1.33;;
8594;SDS011;4335;48.860;9.198;2023-04-28T13:21:46;1.10;;;1.00;;
8594;SDS011;4335;48.860;9.198;2023-04-28T13:24:13;1.40;;;0.80;;
8594;SDS011;4335;48.860;9.198;2023-04-28T13:26:40;1.80;;;1.10;;
8594;SDS011;4335;48.860;9.198;2023-04-28T13:29:15;1.83;;;1.00;;
8594;SDS011;4335;48.860;9.198;2023-04-28T13:31:42;1.43;;;1.23;;
8594;SDS011;4335;48.860;9.198;2023-04-28T13:34:09;1.90;;;1.03;;
8594;SDS011;4335;48.860;9.198;2023-04-28T13:36:40;1.00;;;0.90;;
8594;SDS011;4335;48.860;9.198;2023-04-28T13:39:07;1.87;;;1.47;;
8594;SDS011;4335;48.860;9.198;2023-04-28T13:41:38;1.63;;;1.20;;
8594;SDS011;4335;48.860;9.198;2023-04-28T13:44:09;1.00;;;0.90;;
8594;SDS011;4335;48.860;9.198;2023-04-28T13:46:35;3.07;;;1.70;;
8594;SDS011;4335;48.860;9.198;2023-04-28T13:49:02;1.20;;;0.87;;
8594;SDS011;4335;48.860;9.198;2023-04-28T13:51:32;1.23;;;0.80;;
8594;SDS011;4335;48.860;9.198;2023-04-28T13:53:58;1.27;;;1.10;;
8594;SDS011;4335;48.860;9.198;2023-04-28T13:56:34;1.97;;;1.23;;
8594;SDS011;4335;48.860;9.198;2023-04-28T13:59:02;2.20;;;1.33;;
8594;SDS011;4335;48.860;9.198;2023-04-28T14:01:28;2.07;;;1.20;;
8594;SDS011;4335;48.860;9.198;2023-04-28T14:03:55;3.73;;;1.40;;
8594;SDS011;4335;48.860;9.198;2023-04-28T14:06:27;1.57;;;1.20;;
8594;SDS011;4335;48.860;9.198;2023-04-28T14:08:54;2.57;;;1.07;;
8594;SDS011;4335;48.860;9.198;2023-04-28T14:11:20;1.67;;;1.10;;
8594;SDS011;4335;48.860;9.198;2023-04-28T14:13:47;2.00;;;1.40;;
8594;SDS011;4335;48.860;9.198;2023-04-28T14:16:15;1.90;;;1.30;;
8594;SDS011;4335;48.860;9.198;2023-04-28T14:18:44;2.70;;;2.23;;
8594;SDS011;4335;48.860;9.198;2023-04-28T14:21:11;2.77;;;2.47;;
8594;SDS011;4335;48.860;9.198;2023-04-28T14:23:41;5.13;;;4.30;;
8594;SDS011;4335;48.860;9.198;2023-04-28T14:26:07;3.10;;;1.60;;
8594;SDS011;4335;48.860;9.198;2023-04-28T14:28:34;1.27;;;1.17;;
8594;SDS011;4335;48.860;9.198;2023-04-28T14:31:02;3.13;;;1.23;;
8594;SDS011;4335;48.860;9.198;2023-04-28T14:33:31;3.43;;;2.50;;
8594;SDS011;4335;48.860;9.198;2023-04-28T14:35:57;3.20;;;2.73;;
8594;SDS011;4335;48.860;9.198;2023-04-28T14:38:26;3.67;;;2.90;;
8594;SDS011;4335;48.860;9.198;2023-04-28T14:40:54;3.17;;;1.80;;
8594;SDS011;4335;48.860;9.198;2023-04-28T14:43:21;2.10;;;1.47;;
8594;SDS011;4335;48.860;9.198;2023-04-28T14:45:51;2.03;;;1.73;;
8594;SDS011;4335;48.860;9.198;2023-04-28T14:48:18;3.20;;;1.80;;
8594;SDS011;4335;48.860;9.198;2023-04-28T14:50:48;2.47;;;1.63;;
8594;SDS011;4335;48.860;9.198;2023-04-28T14:53:15;1.53;;;1.43;;
8594;SDS011;4335;48.860;9.198;2023-04-28T14:55:42;1.80;;;1.50;;
8594;SDS011;4335;48.860;9.198;2023-04-28T14:58:21;2.50;;;1.33;;
8594;SDS011;4335;48.860;9.198;2023-04-28T15:00:53;2.97;;;1.90;;
8594;SDS011;4335;48.860;9.198;2023-04-28T15:03:26;3.27;;;1.50;;
8594;SDS011;4335;48.860;9.198;2023-04-28T15:05:53;2.60;;;1.50;;
8594;SDS011;4335;48.860;9.198;2023-04-28T15:08:20;2.10;;;1.73;;
8594;SDS011;4335;48.860;9.198;2023-04-28T15:10:49;2.10;;;1.90;;
8594;SDS011;4335;48.860;9.198;2023-04-28T15:13:16;2.23;;;1.80;;
8594;SDS011;4335;48.860;9.198;2023-04-28T15:15:43;2.43;;;1.40;;
8594;SDS011;4335;48.860;9.198;2023-04-28T15:18:10;3.30;;;1.67;;
8594;SDS011;4335;48.860;9.198;2023-04-28T15:20:39;2.50;;;1.53;;
8594;SDS011;4335;48.860;9.198;2023-04-28T15:23:07;1.33;;;1.20;;
8594;SDS011;4335;48.860;9.198;2023-04-28T15:25:37;4.23;;;1.70;;
8594;SDS011;4335;48.860;9.198;2023-04-28T15:28:04;1.67;;;1.57;;
8594;SDS011;4335;48.860;9.198;2023-04-28T15:30:35;2.67;;;1.60;;
8594;SDS011;4335;48.860;9.198;2023-04-28T15:33:01;1.63;;;1.50;;
8594;SDS011;4335;48.860;9.198;2023-04-28T15:35:28;3.17;;;1.90;;
8594;SDS011;4335;48.860;9.198;2023-04-28T15:37:57;2.93;;;2.03;;
8594;SDS011;4335;48.860;9.198;2023-04-28T15:40:27;4.20;;;2.00;;
8594;SDS011;4335;48.860;9.198;2023-04-28T15:42:54;3.60;;;2.53;;
8594;SDS011;4335;48.860;9.198;2023-04-28T15:45:21;3.33;;;2.20;;
8594;SDS011;4335;48.860;9.198;2023-04-28T15:47:48;4.47;;;3.87;;
8594;SDS011;4335;48.860;9.198;2023-04-28T15:50:16;2.97;;;2.77;;